sensor_id;sensor_type;location;lat;lon;timestamp;P1;durP1;ratioP1;P2;durP2;ratioP2
15476;SDS011;7840;42.702;23.296;2023-06-10T00:02:16;10.35;;;6.55;;
15476;SDS011;7840;42.702;23.296;2023-06-10T00:04:44;9.45;;;6.25;;
15476;SDS011;7840;42.702;23.296;2023-06-10T00:07:11;8.98;;;6.05;;
15476;SDS011;7840;42.702;23.296;2023-06-10T00:09:39;8.43;;;6.25;;
15476;SDS011;7840;42.702;23.296;2023-06-10T00:12:07;8.70;;;6.85;;
15476;SDS011;7840;42.702;23.296;2023-06-10T00:14:36;7.28;;;6.57;;
15476;SDS011;7840;42.702;23.296;2023-06-10T00:17:04;9.55;;;7.05;;
15476;SDS011;7840;42.702;23.296;2023-06-10T00:19:34;8.75;;;6.63;;
15476;SDS011;7840;42.702;23.296;2023-06-10T00:22:04;8.63;;;7.72;;
15476;SDS011;7840;42.702;23.296;2023-06-10T00:24:31;7.63;;;6.93;;
15476;SDS011;7840;42.702;23.296;2023-06-10T00:26:58;7.18;;;6.57;;
15476;SDS011;7840;42.702;23.296;2023-06-10T00:29:25;8.25;;;7.55;;
15476;SDS011;7840;42.702;23.296;2023-06-10T00:31:55;10.18;;;7.00;;
15476;SDS011;7840;42.702;23.296;2023-06-10T00:34:23;7.78;;;6.97;;
15476;SDS011;7840;42.702;23.296;2023-06-10T00:36:51;7.50;;;6.80;;
15476;SDS011;7840;42.702;23.296;2023-06-10T00:39:19;8.07;;;7.22;;
15476;SDS011;7840;42.702;23.296;2023-06-10T00:41:47;9.20;;;7.50;;
15476;SDS011;7840;42.702;23.296;2023-06-10T00:44:14;17.25;;;15.75;;
15476;SDS011;7840;42.702;23.296;2023-06-10T00:46:42;21.50;;;19.23;;
15476;SDS011;7840;42.702;23.296;2023-06-10T00:49:09;21.25;;;19.25;;
15476;SDS011;7840;42.702;23.296;2023-06-10T00:51:37;19.10;;;17.30;;
15476;SDS011;7840;42.702;23.296;2023-06-10T00:54:05;15.82;;;14.52;;
15476;SDS011;7840;42.702;23.296;2023-06-10T00:56:34;14.23;;;12.05;;
15476;SDS011;7840;42.702;23.296;2023-06-10T00:59:02;13.90;;;10.38;;
15476;SDS011;7840;42.702;23.296;2023-06-10T01:01:29;16.30;;;14.80;;
15476;SDS011;7840;42.702;23.296;2023-06-10T01:03:57;66.00;;;59.67;;
15476;SDS011;7840;42.702;23.296;2023-06-10T01:06:26;72.22;;;65.00;;
15476;SDS011;7840;42.702;23.296;2023-06-10T01:08:57;54.25;;;49.10;;
15476;SDS011;7840;42.702;23.296;2023-06-10T01:11:28;30.30;;;27.20;;
15476;SDS011;7840;42.702;23.296;2023-06-10T01:13:57;18.42;;;16.50;;
15476;SDS011;7840;42.702;23.296;2023-06-10T01:16:25;14.98;;;12.52;;
15476;SDS011;7840;42.702;23.296;2023-06-10T01:18:53;12.80;;;10.57;;
15476;SDS011;7840;42.702;23.296;2023-06-10T01:21:22;10.00;;;9.02;;
15476;SDS011;7840;42.702;23.296;2023-06-10T01:23:52;11.63;;;9.40;;
15476;SDS011;7840;42.702;23.296;2023-06-10T01:26:21;9.75;;;8.85;;
15476;SDS011;7840;42.702;23.296;2023-06-10T01:28:49;8.95;;;8.05;;
15476;SDS011;7840;42.702;23.296;2023-06-10T01:31:20;9.65;;;8.70;;
15476;SDS011;7840;42.702;23.296;2023-06-10T01:33:51;10.02;;;8.85;;
15476;SDS011;7840;42.702;23.296;2023-06-10T01:36:19;10.02;;;8.70;;
15476;SDS011;7840;42.702;23.296;2023-06-10T01:38:48;9.52;;;8.68;;
15476;SDS011;7840;42.702;23.296;2023-06-10T01:41:17;11.75;;;8.80;;
15476;SDS011;7840;42.702;23.296;2023-06-10T01:43:44;12.90;;;9.80;;
15476;SDS011;7840;42.702;23.296;2023-06-10T01:46:12;13.30;;;11.93;;
15476;SDS011;7840;42.702;23.296;2023-06-10T01:48:40;12.63;;;11.35;;
15476;SDS011;7840;42.702;23.296;2023-06-10T01:51:08;16.30;;;11.07;;
15476;SDS011;7840;42.702;23.296;2023-06-10T01:53:35;12.55;;;8.85;;
15476;SDS011;7840;42.702;23.296;2023-06-10T01:56:04;10.90;;;9.18;;
15476;SDS011;7840;42.702;23.296;2023-06-10T01:58:31;8.93;;;8.13;;
15476;SDS011;7840;42.702;23.296;2023-06-10T02:00:59;9.50;;;8.50;;
15476;SDS011;7840;42.702;23.296;2023-06-10T02:03:26;11.50;;;7.88;;
15476;SDS011;7840;42.702;23.296;2023-06-10T02:05:53;8.63;;;7.93;;
15476;SDS011;7840;42.702;23.296;2023-06-10T02:08:21;9.75;;;7.30;;
15476;SDS011;7840;42.702;23.296;2023-06-10T02:10:48;8.93;;;8.02;;
15476;SDS011;7840;42.702;23.296;2023-06-10T02:13:17;8.68;;;7.82;;
15476;SDS011;7840;42.702;23.296;2023-06-10T02:15:44;8.70;;;7.80;;
15476;SDS011;7840;42.702;23.296;2023-06-10T02:18:15;8.90;;;7.28;;
15476;SDS011;7840;42.702;23.296;2023-06-10T02:20:45;9.77;;;7.28;;
15476;SDS011;7840;42.702;23.296;2023-06-10T02:23:12;10.52;;;7.43;;
15476;SDS011;7840;42.702;23.296;2023-06-10T02:25:40;10.15;;;8.38;;
15476;SDS011;7840;42.702;23.296;2023-06-10T02:28:07;8.65;;;7.65;;
15476;SDS011;7840;42.702;23.296;2023-06-10T02:30:38;8.15;;;7.32;;
15476;SDS011;7840;42.702;23.296;2023-06-10T02:33:06;8.63;;;7.18;;
15476;SDS011;7840;42.702;23.296;2023-06-10T02:35:35;10.23;;;7.38;;
15476;SDS011;7840;42.702;23.296;2023-06-10T02:38:02;9.00;;;6.75;;
15476;SDS011;7840;42.702;23.296;2023-06-10T02:40:30;8.40;;;7.43;;
15476;SDS011;7840;42.702;23.296;2023-06-10T02:42:57;7.93;;;6.57;;
15476;SDS011;7840;42.702;23.296;2023-06-10T02:45:24;7.90;;;7.10;;
15476;SDS011;7840;42.702;23.296;2023-06-10T02:47:53;8.90;;;7.15;;
15476;SDS011;7840;42.702;23.296;2023-06-10T02:50:20;7.45;;;6.75;;
15476;SDS011;7840;42.702;23.296;2023-06-10T02:52:48;9.77;;;7.20;;
15476;SDS011;7840;42.702;23.296;2023-06-10T02:55:15;8.48;;;6.75;;
15476;SDS011;7840;42.702;23.296;2023-06-10T02:57:42;8.05;;;6.95;;
15476;SDS011;7840;42.702;23.296;2023-06-10T03:00:10;7.65;;;6.72;;
15476;SDS011;7840;42.702;23.296;2023-06-10T03:02:39;7.85;;;6.57;;
15476;SDS011;7840;42.702;23.296;2023-06-10T03:05:08;7.88;;;7.07;;
15476;SDS011;7840;42.702;23.296;2023-06-10T03:07:36;9.70;;;8.48;;
15476;SDS011;7840;42.702;23.296;2023-06-10T03:10:04;10.45;;;8.10;;
15476;SDS011;7840;42.702;23.296;2023-06-10T03:12:31;9.73;;;8.40;;
15476;SDS011;7840;42.702;23.296;2023-06-10T03:14:58;9.52;;;8.57;;
15476;SDS011;7840;42.702;23.296;2023-06-10T03:17:26;11.98;;;9.35;;
15476;SDS011;7840;42.702;23.296;2023-06-10T03:19:53;11.70;;;10.27;;
15476;SDS011;7840;42.702;23.296;2023-06-10T03:22:22;12.18;;;9.65;;
15476;SDS011;7840;42.702;23.296;2023-06-10T03:24:49;13.35;;;11.20;;
15476;SDS011;7840;42.702;23.296;2023-06-10T03:27:17;12.10;;;10.75;;
15476;SDS011;7840;42.702;23.296;2023-06-10T03:29:44;12.65;;;10.63;;
15476;SDS011;7840;42.702;23.296;2023-06-10T03:32:11;12.02;;;10.70;;
15476;SDS011;7840;42.702;23.296;2023-06-10T03:34:39;10.63;;;9.52;;
15476;SDS011;7840;42.702;23.296;2023-06-10T03:37:07;12.63;;;11.55;;
15476;SDS011;7840;42.702;23.296;2023-06-10T03:39:36;13.40;;;12.15;;
15476;SDS011;7840;42.702;23.296;2023-06-10T03:42:03;12.65;;;11.38;;
15476;SDS011;7840;42.702;23.296;2023-06-10T03:44:31;15.00;;;12.00;;
15476;SDS011;7840;42.702;23.296;2023-06-10T03:46:59;13.77;;;10.88;;
15476;SDS011;7840;42.702;23.296;2023-06-10T03:49:26;12.00;;;10.80;;
15476;SDS011;7840;42.702;23.296;2023-06-10T03:51:54;11.75;;;10.60;;
15476;SDS011;7840;42.702;23.296;2023-06-10T03:54:21;12.98;;;10.32;;
15476;SDS011;7840;42.702;23.296;2023-06-10T03:56:50;17.73;;;10.63;;
15476;SDS011;7840;42.702;23.296;2023-06-10T03:59:17;10.85;;;9.55;;
15476;SDS011;7840;42.702;23.296;2023-06-10T04:01:45;15.15;;;9.45;;
15476;SDS011;7840;42.702;23.296;2023-06-10T04:04:13;10.25;;;9.10;;
15476;SDS011;7840;42.702;23.296;2023-06-10T04:06:41;9.77;;;8.77;;
15476;SDS011;7840;42.702;23.296;2023-06-10T04:09:09;9.18;;;8.32;;
15476;SDS011;7840;42.702;23.296;2023-06-10T04:11:37;9.20;;;8.32;;
15476;SDS011;7840;42.702;23.296;2023-06-10T04:14:05;8.88;;;8.15;;
15476;SDS011;7840;42.702;23.296;2023-06-10T04:16:33;9.57;;;8.55;;
15476;SDS011;7840;42.702;23.296;2023-06-10T04:19:00;8.52;;;7.38;;
15476;SDS011;7840;42.702;23.296;2023-06-10T04:21:30;10.30;;;8.98;;
15476;SDS011;7840;42.702;23.296;2023-06-10T04:23:58;9.23;;;8.10;;
15476;SDS011;7840;42.702;23.296;2023-06-10T04:26:25;10.32;;;8.18;;
15476;SDS011;7840;42.702;23.296;2023-06-10T04:28:52;9.13;;;8.32;;
15476;SDS011;7840;42.702;23.296;2023-06-10T04:31:21;8.27;;;7.50;;
15476;SDS011;7840;42.702;23.296;2023-06-10T04:33:48;9.07;;;7.97;;
15476;SDS011;7840;42.702;23.296;2023-06-10T04:36:15;9.68;;;8.07;;
15476;SDS011;7840;42.702;23.296;2023-06-10T04:38:43;8.05;;;7.25;;
15476;SDS011;7840;42.702;23.296;2023-06-10T04:41:10;7.72;;;7.00;;
15476;SDS011;7840;42.702;23.296;2023-06-10T04:43:38;9.63;;;6.55;;
15476;SDS011;7840;42.702;23.296;2023-06-10T04:46:05;11.05;;;6.80;;
15476;SDS011;7840;42.702;23.296;2023-06-10T04:48:34;7.95;;;6.03;;
15476;SDS011;7840;42.702;23.296;2023-06-10T04:51:02;7.00;;;6.32;;
15476;SDS011;7840;42.702;23.296;2023-06-10T04:53:30;7.43;;;6.72;;
15476;SDS011;7840;42.702;23.296;2023-06-10T04:55:57;8.00;;;7.25;;
15476;SDS011;7840;42.702;23.296;2023-06-10T04:58:25;8.27;;;7.07;;
15476;SDS011;7840;42.702;23.296;2023-06-10T05:00:52;9.48;;;7.78;;
15476;SDS011;7840;42.702;23.296;2023-06-10T05:03:19;9.48;;;6.93;;
15476;SDS011;7840;42.702;23.296;2023-06-10T05:05:48;8.93;;;7.55;;
15476;SDS011;7840;42.702;23.296;2023-06-10T05:08:15;8.05;;;7.22;;
15476;SDS011;7840;42.702;23.296;2023-06-10T05:10:42;8.35;;;7.45;;
15476;SDS011;7840;42.702;23.296;2023-06-10T05:13:09;8.82;;;7.80;;
15476;SDS011;7840;42.702;23.296;2023-06-10T05:15:37;8.65;;;7.68;;
15476;SDS011;7840;42.702;23.296;2023-06-10T05:18:05;8.13;;;7.35;;
15476;SDS011;7840;42.702;23.296;2023-06-10T05:20:32;7.95;;;6.75;;
15476;SDS011;7840;42.702;23.296;2023-06-10T05:23:01;8.57;;;6.75;;
15476;SDS011;7840;42.702;23.296;2023-06-10T05:25:30;7.40;;;6.70;;
15476;SDS011;7840;42.702;23.296;2023-06-10T05:28:01;8.40;;;7.47;;
15476;SDS011;7840;42.702;23.296;2023-06-10T05:30:28;8.57;;;7.43;;
15476;SDS011;7840;42.702;23.296;2023-06-10T05:32:55;7.97;;;7.28;;
15476;SDS011;7840;42.702;23.296;2023-06-10T05:35:23;8.27;;;7.47;;
15476;SDS011;7840;42.702;23.296;2023-06-10T05:37:50;10.95;;;7.85;;
15476;SDS011;7840;42.702;23.296;2023-06-10T05:40:19;9.20;;;8.30;;
15476;SDS011;7840;42.702;23.296;2023-06-10T05:42:46;9.27;;;8.38;;
15476;SDS011;7840;42.702;23.296;2023-06-10T05:45:13;9.50;;;8.60;;
15476;SDS011;7840;42.702;23.296;2023-06-10T05:47:41;8.70;;;7.80;;
15476;SDS011;7840;42.702;23.296;2023-06-10T05:50:08;9.45;;;7.30;;
15476;SDS011;7840;42.702;23.296;2023-06-10T05:52:36;9.98;;;6.43;;
15476;SDS011;7840;42.702;23.296;2023-06-10T05:55:05;6.72;;;6.13;;
15476;SDS011;7840;42.702;23.296;2023-06-10T05:57:34;7.22;;;6.18;;
15476;SDS011;7840;42.702;23.296;2023-06-10T06:00:01;8.73;;;7.13;;
15476;SDS011;7840;42.702;23.296;2023-06-10T06:02:29;8.85;;;6.72;;
15476;SDS011;7840;42.702;23.296;2023-06-10T06:04:56;7.70;;;7.00;;
15476;SDS011;7840;42.702;23.296;2023-06-10T06:07:24;12.85;;;7.75;;
15476;SDS011;7840;42.702;23.296;2023-06-10T06:09:51;11.00;;;6.85;;
15476;SDS011;7840;42.702;23.296;2023-06-10T06:12:18;11.75;;;7.50;;
15476;SDS011;7840;42.702;23.296;2023-06-10T06:14:47;11.43;;;7.65;;
15476;SDS011;7840;42.702;23.296;2023-06-10T06:17:15;10.07;;;7.38;;
15476;SDS011;7840;42.702;23.296;2023-06-10T06:19:42;9.60;;;7.88;;
15476;SDS011;7840;42.702;23.296;2023-06-10T06:22:10;8.65;;;7.50;;
15476;SDS011;7840;42.702;23.296;2023-06-10T06:24:37;9.60;;;7.25;;
15476;SDS011;7840;42.702;23.296;2023-06-10T06:27:05;8.13;;;7.40;;
15476;SDS011;7840;42.702;23.296;2023-06-10T06:29:32;11.40;;;8.30;;
15476;SDS011;7840;42.702;23.296;2023-06-10T06:32:01;11.90;;;7.60;;
15476;SDS011;7840;42.702;23.296;2023-06-10T06:34:28;12.07;;;8.25;;
15476;SDS011;7840;42.702;23.296;2023-06-10T06:36:55;12.18;;;8.18;;
15476;SDS011;7840;42.702;23.296;2023-06-10T06:39:22;8.80;;;7.60;;
15476;SDS011;7840;42.702;23.296;2023-06-10T06:41:50;7.90;;;7.10;;
15476;SDS011;7840;42.702;23.296;2023-06-10T06:44:17;6.72;;;6.10;;
15476;SDS011;7840;42.702;23.296;2023-06-10T06:46:44;6.90;;;5.57;;
15476;SDS011;7840;42.702;23.296;2023-06-10T06:49:13;7.78;;;6.10;;
15476;SDS011;7840;42.702;23.296;2023-06-10T06:51:41;5.70;;;4.97;;
15476;SDS011;7840;42.702;23.296;2023-06-10T06:54:08;6.97;;;6.28;;
15476;SDS011;7840;42.702;23.296;2023-06-10T06:56:36;6.80;;;6.10;;
15476;SDS011;7840;42.702;23.296;2023-06-10T06:59:03;7.65;;;6.88;;
15476;SDS011;7840;42.702;23.296;2023-06-10T07:01:32;8.02;;;7.10;;
15476;SDS011;7840;42.702;23.296;2023-06-10T07:04:00;6.82;;;6.13;;
15476;SDS011;7840;42.702;23.296;2023-06-10T07:06:29;10.52;;;6.43;;
15476;SDS011;7840;42.702;23.296;2023-06-10T07:08:56;9.57;;;6.32;;
15476;SDS011;7840;42.702;23.296;2023-06-10T07:11:24;8.02;;;6.40;;
15476;SDS011;7840;42.702;23.296;2023-06-10T07:13:51;9.05;;;6.75;;
15476;SDS011;7840;42.702;23.296;2023-06-10T07:16:18;7.10;;;6.50;;
15476;SDS011;7840;42.702;23.296;2023-06-10T07:18:46;9.50;;;5.38;;
15476;SDS011;7840;42.702;23.296;2023-06-10T07:21:14;8.25;;;6.15;;
15476;SDS011;7840;42.702;23.296;2023-06-10T07:23:42;8.20;;;6.38;;
15476;SDS011;7840;42.702;23.296;2023-06-10T07:26:10;8.23;;;5.35;;
15476;SDS011;7840;42.702;23.296;2023-06-10T07:28:38;5.80;;;5.22;;
15476;SDS011;7840;42.702;23.296;2023-06-10T07:31:06;7.90;;;5.30;;
15476;SDS011;7840;42.702;23.296;2023-06-10T07:33:33;6.32;;;5.10;;
15476;SDS011;7840;42.702;23.296;2023-06-10T07:36:02;5.32;;;4.82;;
15476;SDS011;7840;42.702;23.296;2023-06-10T07:38:29;5.03;;;3.90;;
15476;SDS011;7840;42.702;23.296;2023-06-10T07:40:58;6.90;;;4.75;;
15476;SDS011;7840;42.702;23.296;2023-06-10T07:43:25;6.45;;;4.05;;
15476;SDS011;7840;42.702;23.296;2023-06-10T07:45:52;6.10;;;4.20;;
15476;SDS011;7840;42.702;23.296;2023-06-10T07:48:20;7.38;;;4.47;;
15476;SDS011;7840;42.702;23.296;2023-06-10T07:50:47;4.32;;;3.80;;
15476;SDS011;7840;42.702;23.296;2023-06-10T07:53:14;6.75;;;3.90;;
15476;SDS011;7840;42.702;23.296;2023-06-10T07:55:41;3.97;;;3.67;;
15476;SDS011;7840;42.702;23.296;2023-06-10T07:58:10;4.95;;;4.55;;
15476;SDS011;7840;42.702;23.296;2023-06-10T08:00:37;5.47;;;4.32;;
15476;SDS011;7840;42.702;23.296;2023-06-10T08:03:05;5.68;;;4.20;;
15476;SDS011;7840;42.702;23.296;2023-06-10T08:05:32;9.07;;;4.20;;
15476;SDS011;7840;42.702;23.296;2023-06-10T08:07:59;4.45;;;3.60;;
15476;SDS011;7840;42.702;23.296;2023-06-10T08:10:26;5.03;;;4.10;;
15476;SDS011;7840;42.702;23.296;2023-06-10T08:12:54;7.05;;;4.18;;
15476;SDS011;7840;42.702;23.296;2023-06-10T08:15:22;5.00;;;3.83;;
15476;SDS011;7840;42.702;23.296;2023-06-10T08:17:49;4.15;;;3.75;;
15476;SDS011;7840;42.702;23.296;2023-06-10T08:20:17;4.43;;;4.03;;
15476;SDS011;7840;42.702;23.296;2023-06-10T08:22:44;4.80;;;4.15;;
15476;SDS011;7840;42.702;23.296;2023-06-10T08:25:12;5.05;;;3.28;;
15476;SDS011;7840;42.702;23.296;2023-06-10T08:27:39;3.65;;;3.40;;
15476;SDS011;7840;42.702;23.296;2023-06-10T08:30:07;3.75;;;3.45;;
15476;SDS011;7840;42.702;23.296;2023-06-10T08:32:37;5.18;;;3.53;;
15476;SDS011;7840;42.702;23.296;2023-06-10T08:35:04;4.07;;;3.65;;
15476;SDS011;7840;42.702;23.296;2023-06-10T08:37:31;4.00;;;3.60;;
15476;SDS011;7840;42.702;23.296;2023-06-10T08:39:59;7.78;;;3.75;;
15476;SDS011;7840;42.702;23.296;2023-06-10T08:42:28;4.25;;;3.80;;
15476;SDS011;7840;42.702;23.296;2023-06-10T08:44:57;4.13;;;2.97;;
15476;SDS011;7840;42.702;23.296;2023-06-10T08:47:25;4.30;;;3.47;;
15476;SDS011;7840;42.702;23.296;2023-06-10T08:49:55;9.02;;;3.50;;
15476;SDS011;7840;42.702;23.296;2023-06-10T08:52:28;4.65;;;3.90;;
15476;SDS011;7840;42.702;23.296;2023-06-10T08:54:56;5.40;;;4.75;;
15476;SDS011;7840;42.702;23.296;2023-06-10T08:57:24;5.47;;;3.38;;
15476;SDS011;7840;42.702;23.296;2023-06-10T08:59:52;5.20;;;4.13;;
15476;SDS011;7840;42.702;23.296;2023-06-10T09:02:20;4.88;;;3.85;;
15476;SDS011;7840;42.702;23.296;2023-06-10T09:04:47;5.22;;;4.65;;
15476;SDS011;7840;42.702;23.296;2023-06-10T09:07:17;4.85;;;3.63;;
15476;SDS011;7840;42.702;23.296;2023-06-10T09:09:45;10.00;;;5.00;;
15476;SDS011;7840;42.702;23.296;2023-06-10T09:12:14;3.75;;;3.00;;
15476;SDS011;7840;42.702;23.296;2023-06-10T09:14:41;3.63;;;3.33;;
15476;SDS011;7840;42.702;23.296;2023-06-10T09:17:09;7.03;;;3.90;;
15476;SDS011;7840;42.702;23.296;2023-06-10T09:19:36;5.43;;;3.58;;
15476;SDS011;7840;42.702;23.296;2023-06-10T09:22:05;5.30;;;3.95;;
15476;SDS011;7840;42.702;23.296;2023-06-10T09:24:34;4.88;;;3.70;;
15476;SDS011;7840;42.702;23.296;2023-06-10T09:27:04;6.20;;;3.97;;
15476;SDS011;7840;42.702;23.296;2023-06-10T09:29:33;8.15;;;4.50;;
15476;SDS011;7840;42.702;23.296;2023-06-10T09:32:12;6.90;;;4.10;;
15476;SDS011;7840;42.702;23.296;2023-06-10T09:34:39;8.45;;;4.72;;
15476;SDS011;7840;42.702;23.296;2023-06-10T09:37:07;5.78;;;3.70;;
15476;SDS011;7840;42.702;23.296;2023-06-10T09:39:38;4.00;;;3.60;;
15476;SDS011;7840;42.702;23.296;2023-06-10T09:42:15;8.35;;;3.83;;
15476;SDS011;7840;42.702;23.296;2023-06-10T09:44:48;4.53;;;3.67;;
15476;SDS011;7840;42.702;23.296;2023-06-10T09:47:19;4.35;;;3.90;;
15476;SDS011;7840;42.702;23.296;2023-06-10T09:49:46;3.72;;;3.33;;
15476;SDS011;7840;42.702;23.296;2023-06-10T09:52:13;5.53;;;3.67;;
15476;SDS011;7840;42.702;23.296;2023-06-10T09:54:43;3.75;;;2.70;;
15476;SDS011;7840;42.702;23.296;2023-06-10T09:57:11;3.53;;;3.22;;
15476;SDS011;7840;42.702;23.296;2023-06-10T09:59:39;3.20;;;3.00;;
15476;SDS011;7840;42.702;23.296;2023-06-10T10:02:06;4.93;;;3.78;;
15476;SDS011;7840;42.702;23.296;2023-06-10T10:04:40;4.45;;;3.20;;
15476;SDS011;7840;42.702;23.296;2023-06-10T10:07:07;3.03;;;2.83;;
15476;SDS011;7840;42.702;23.296;2023-06-10T10:09:35;4.80;;;2.90;;
15476;SDS011;7840;42.702;23.296;2023-06-10T10:12:04;2.97;;;2.60;;
15476;SDS011;7840;42.702;23.296;2023-06-10T10:14:33;3.88;;;3.30;;
15476;SDS011;7840;42.702;23.296;2023-06-10T10:17:01;4.75;;;3.40;;
15476;SDS011;7840;42.702;23.296;2023-06-10T10:19:29;3.40;;;2.70;;
15476;SDS011;7840;42.702;23.296;2023-06-10T10:22:01;2.83;;;2.40;;
15476;SDS011;7840;42.702;23.296;2023-06-10T10:24:30;2.55;;;2.38;;
15476;SDS011;7840;42.702;23.296;2023-06-10T10:27:01;4.07;;;2.78;;
15476;SDS011;7840;42.702;23.296;2023-06-10T10:29:37;5.78;;;3.58;;
15476;SDS011;7840;42.702;23.296;2023-06-10T10:32:06;5.53;;;2.65;;
15476;SDS011;7840;42.702;23.296;2023-06-10T10:34:34;3.47;;;3.17;;
15476;SDS011;7840;42.702;23.296;2023-06-10T10:37:02;3.67;;;2.78;;
15476;SDS011;7840;42.702;23.296;2023-06-10T10:39:30;3.50;;;3.20;;
15476;SDS011;7840;42.702;23.296;2023-06-10T10:41:58;4.30;;;2.75;;
15476;SDS011;7840;42.702;23.296;2023-06-10T10:44:25;3.22;;;2.90;;
15476;SDS011;7840;42.702;23.296;2023-06-10T10:46:54;4.25;;;2.88;;
15476;SDS011;7840;42.702;23.296;2023-06-10T10:49:25;2.40;;;2.20;;
15476;SDS011;7840;42.702;23.296;2023-06-10T10:51:54;4.35;;;2.97;;
15476;SDS011;7840;42.702;23.296;2023-06-10T10:54:28;2.97;;;2.67;;
15476;SDS011;7840;42.702;23.296;2023-06-10T10:59:54;3.42;;;3.00;;
15476;SDS011;7840;42.702;23.296;2023-06-10T11:02:37;2.75;;;2.55;;
15476;SDS011;7840;42.702;23.296;2023-06-10T11:05:08;3.40;;;3.00;;
15476;SDS011;7840;42.702;23.296;2023-06-10T11:07:36;3.13;;;2.83;;
15476;SDS011;7840;42.702;23.296;2023-06-10T11:10:06;3.58;;;2.92;;
15476;SDS011;7840;42.702;23.296;2023-06-10T11:12:50;4.18;;;3.42;;
15476;SDS011;7840;42.702;23.296;2023-06-10T11:15:18;4.45;;;3.40;;
15476;SDS011;7840;42.702;23.296;2023-06-10T11:23:34;4.22;;;3.60;;
15476;SDS011;7840;42.702;23.296;2023-06-10T11:26:14;4.22;;;3.83;;
15476;SDS011;7840;42.702;23.296;2023-06-10T11:28:42;4.40;;;4.00;;
15476;SDS011;7840;42.702;23.296;2023-06-10T11:31:28;3.97;;;3.30;;
15476;SDS011;7840;42.702;23.296;2023-06-10T11:33:55;4.80;;;3.67;;
15476;SDS011;7840;42.702;23.296;2023-06-10T11:36:23;5.32;;;3.67;;
15476;SDS011;7840;42.702;23.296;2023-06-10T11:38:53;7.90;;;3.80;;
15476;SDS011;7840;42.702;23.296;2023-06-10T11:41:20;5.18;;;4.03;;
15476;SDS011;7840;42.702;23.296;2023-06-10T11:43:48;4.07;;;3.67;;
15476;SDS011;7840;42.702;23.296;2023-06-10T11:46:15;7.97;;;3.72;;
15476;SDS011;7840;42.702;23.296;2023-06-10T11:48:48;4.07;;;3.67;;
15476;SDS011;7840;42.702;23.296;2023-06-10T11:51:15;3.92;;;3.60;;
15476;SDS011;7840;42.702;23.296;2023-06-10T11:53:43;3.72;;;3.17;;
15476;SDS011;7840;42.702;23.296;2023-06-10T11:56:12;3.75;;;3.45;;
15476;SDS011;7840;42.702;23.296;2023-06-10T11:58:39;3.35;;;2.97;;
15476;SDS011;7840;42.702;23.296;2023-06-10T12:01:09;3.78;;;3.47;;
15476;SDS011;7840;42.702;23.296;2023-06-10T12:03:37;3.83;;;3.53;;
15476;SDS011;7840;42.702;23.296;2023-06-10T12:06:05;3.67;;;3.33;;
15476;SDS011;7840;42.702;23.296;2023-06-10T12:08:32;4.45;;;3.50;;
15476;SDS011;7840;42.702;23.296;2023-06-10T12:11:00;3.50;;;3.20;;
15476;SDS011;7840;42.702;23.296;2023-06-10T12:13:29;3.13;;;2.85;;
15476;SDS011;7840;42.702;23.296;2023-06-10T12:16:05;4.32;;;2.75;;
15476;SDS011;7840;42.702;23.296;2023-06-10T12:18:33;3.78;;;3.40;;
15476;SDS011;7840;42.702;23.296;2023-06-10T12:21:01;8.98;;;3.80;;
15476;SDS011;7840;42.702;23.296;2023-06-10T12:23:28;5.47;;;3.70;;
15476;SDS011;7840;42.702;23.296;2023-06-10T12:25:56;4.68;;;3.38;;
15476;SDS011;7840;42.702;23.296;2023-06-10T12:28:24;3.38;;;3.08;;
15476;SDS011;7840;42.702;23.296;2023-06-10T12:30:52;3.15;;;2.95;;
15476;SDS011;7840;42.702;23.296;2023-06-10T12:33:32;5.75;;;3.10;;
15476;SDS011;7840;42.702;23.296;2023-06-10T12:36:00;3.25;;;2.95;;
15476;SDS011;7840;42.702;23.296;2023-06-10T12:38:27;5.70;;;3.28;;
15476;SDS011;7840;42.702;23.296;2023-06-10T12:41:00;3.60;;;3.30;;
15476;SDS011;7840;42.702;23.296;2023-06-10T12:43:30;3.30;;;2.95;;
15476;SDS011;7840;42.702;23.296;2023-06-10T12:46:09;3.42;;;3.13;;
15476;SDS011;7840;42.702;23.296;2023-06-10T12:48:36;3.72;;;3.42;;
15476;SDS011;7840;42.702;23.296;2023-06-10T12:51:16;5.45;;;3.45;;
15476;SDS011;7840;42.702;23.296;2023-06-10T12:53:44;3.72;;;3.30;;
15476;SDS011;7840;42.702;23.296;2023-06-10T12:56:11;4.80;;;3.70;;
15476;SDS011;7840;42.702;23.296;2023-06-10T12:58:41;5.45;;;3.60;;
15476;SDS011;7840;42.702;23.296;2023-06-10T13:01:10;3.58;;;3.28;;
15476;SDS011;7840;42.702;23.296;2023-06-10T13:03:37;4.32;;;3.45;;
15476;SDS011;7840;42.702;23.296;2023-06-10T13:06:05;4.15;;;3.50;;
15476;SDS011;7840;42.702;23.296;2023-06-10T13:08:32;4.47;;;3.40;;
15476;SDS011;7840;42.702;23.296;2023-06-10T13:11:00;4.07;;;3.60;;
15476;SDS011;7840;42.702;23.296;2023-06-10T13:13:27;3.67;;;3.33;;
15476;SDS011;7840;42.702;23.296;2023-06-10T13:15:55;5.50;;;3.97;;
15476;SDS011;7840;42.702;23.296;2023-06-10T13:18:23;4.68;;;3.85;;
15476;SDS011;7840;42.702;23.296;2023-06-10T13:20:51;5.25;;;4.22;;
15476;SDS011;7840;42.702;23.296;2023-06-10T13:23:18;9.80;;;4.20;;
15476;SDS011;7840;42.702;23.296;2023-06-10T13:25:45;5.18;;;4.18;;
15476;SDS011;7840;42.702;23.296;2023-06-10T13:28:12;8.13;;;5.03;;
15476;SDS011;7840;42.702;23.296;2023-06-10T13:30:40;6.80;;;4.10;;
15476;SDS011;7840;42.702;23.296;2023-06-10T13:33:07;5.20;;;4.45;;
15476;SDS011;7840;42.702;23.296;2023-06-10T13:35:36;5.25;;;4.43;;
15476;SDS011;7840;42.702;23.296;2023-06-10T13:38:03;5.35;;;4.15;;
15476;SDS011;7840;42.702;23.296;2023-06-10T13:40:32;5.13;;;4.35;;
15476;SDS011;7840;42.702;23.296;2023-06-10T13:42:59;5.20;;;4.10;;
15476;SDS011;7840;42.702;23.296;2023-06-10T13:45:27;7.18;;;4.80;;
15476;SDS011;7840;42.702;23.296;2023-06-10T13:47:55;4.72;;;4.30;;
15476;SDS011;7840;42.702;23.296;2023-06-10T13:50:22;5.90;;;5.13;;
15476;SDS011;7840;42.702;23.296;2023-06-10T13:52:51;4.63;;;4.22;;
15476;SDS011;7840;42.702;23.296;2023-06-10T13:55:18;5.57;;;4.50;;
15476;SDS011;7840;42.702;23.296;2023-06-10T13:57:46;6.22;;;5.05;;
15476;SDS011;7840;42.702;23.296;2023-06-10T14:00:13;4.93;;;4.40;;
15476;SDS011;7840;42.702;23.296;2023-06-10T14:02:41;4.95;;;4.45;;
15476;SDS011;7840;42.702;23.296;2023-06-10T14:05:08;4.93;;;4.50;;
15476;SDS011;7840;42.702;23.296;2023-06-10T14:07:35;6.70;;;4.28;;
15476;SDS011;7840;42.702;23.296;2023-06-10T14:10:05;5.70;;;4.40;;
15476;SDS011;7840;42.702;23.296;2023-06-10T14:12:33;5.97;;;4.38;;
15476;SDS011;7840;42.702;23.296;2023-06-10T14:15:01;8.20;;;5.00;;
15476;SDS011;7840;42.702;23.296;2023-06-10T14:17:28;6.13;;;4.80;;
15476;SDS011;7840;42.702;23.296;2023-06-10T14:19:55;8.07;;;4.63;;
15476;SDS011;7840;42.702;23.296;2023-06-10T14:22:23;6.45;;;4.85;;
15476;SDS011;7840;42.702;23.296;2023-06-10T14:24:50;6.05;;;5.45;;
15476;SDS011;7840;42.702;23.296;2023-06-10T14:27:19;7.28;;;5.78;;
15476;SDS011;7840;42.702;23.296;2023-06-10T14:29:46;5.65;;;5.03;;
15476;SDS011;7840;42.702;23.296;2023-06-10T14:32:13;6.75;;;5.30;;
15476;SDS011;7840;42.702;23.296;2023-06-10T14:34:41;7.05;;;5.00;;
15476;SDS011;7840;42.702;23.296;2023-06-10T14:37:09;6.35;;;4.28;;
15476;SDS011;7840;42.702;23.296;2023-06-10T14:39:37;4.80;;;4.25;;
15476;SDS011;7840;42.702;23.296;2023-06-10T14:42:04;5.78;;;4.30;;
15476;SDS011;7840;42.702;23.296;2023-06-10T14:44:33;5.55;;;4.05;;
15476;SDS011;7840;42.702;23.296;2023-06-10T14:47:00;5.85;;;4.50;;
15476;SDS011;7840;42.702;23.296;2023-06-10T14:49:27;4.70;;;4.22;;
15476;SDS011;7840;42.702;23.296;2023-06-10T14:51:55;4.53;;;4.05;;
15476;SDS011;7840;42.702;23.296;2023-06-10T14:54:22;4.25;;;3.85;;
15476;SDS011;7840;42.702;23.296;2023-06-10T14:56:49;6.78;;;4.30;;
15476;SDS011;7840;42.702;23.296;2023-06-10T14:59:16;4.88;;;3.90;;